createdAt,value
2019-02-10T00:00:53.235Z,8.60
2019-02-10T00:03:25.600Z,8.60
2019-02-10T00:05:57.709Z,8.60
2019-02-10T00:08:29.985Z,8.60
2019-02-10T00:11:02.091Z,8.60
2019-02-10T00:13:36.233Z,8.50
2019-02-10T00:16:11.024Z,8.50
2019-02-10T00:18:46.093Z,8.50
2019-02-10T00:21:18.160Z,8.40
2019-02-10T00:23:52.237Z,8.50
2019-02-10T00:26:24.188Z,8.50
2019-02-10T00:28:57.352Z,8.50
2019-02-10T00:31:29.105Z,8.50
2019-02-10T00:34:01.009Z,8.50
2019-02-10T00:36:33.576Z,8.60
2019-02-10T00:39:07.935Z,8.60
2019-02-10T00:41:38.770Z,8.60
2019-02-10T00:44:09.562Z,8.60
2019-02-10T00:46:40.332Z,8.60
2019-02-10T00:49:11.149Z,8.50
2019-02-10T00:51:41.939Z,8.60
2019-02-10T00:54:12.743Z,8.60
2019-02-10T00:56:43.556Z,8.50
2019-02-10T00:59:14.321Z,8.50
2019-02-10T01:01:45.366Z,8.50
2019-02-10T01:04:16.166Z,8.50
2019-02-10T01:06:47.169Z,8.50
2019-02-10T01:09:18.033Z,8.60
2019-02-10T01:11:48.793Z,8.60
2019-02-10T01:14:19.590Z,8.60
2019-02-10T01:16:50.385Z,8.60
2019-02-10T01:19:21.178Z,8.60
2019-02-10T01:21:51.941Z,8.60
2019-02-10T01:24:22.761Z,8.60
2019-02-10T01:26:53.553Z,8.60
2019-02-10T01:29:24.322Z,8.60
2019-02-10T01:31:55.135Z,8.60
2019-02-10T01:34:26.301Z,8.60
2019-02-10T01:36:57.110Z,8.60
2019-02-10T01:39:27.888Z,8.70
2019-02-10T01:41:58.678Z,8.60
2019-02-10T01:44:29.450Z,8.60
2019-02-10T01:47:00.245Z,8.60
2019-02-10T01:49:31.001Z,8.60
2019-02-10T01:52:01.855Z,8.60
2019-02-10T01:54:32.606Z,8.60
2019-02-10T01:57:03.413Z,8.60
2019-02-10T01:59:34.166Z,8.60
2019-02-10T02:02:04.993Z,8.60
2019-02-10T02:04:35.783Z,8.60
2019-02-10T02:07:06.575Z,8.60
2019-02-10T02:09:37.412Z,8.60
2019-02-10T02:12:08.477Z,8.60
2019-02-10T02:14:39.262Z,8.60
2019-02-10T02:17:10.058Z,8.60
2019-02-10T02:19:40.842Z,8.60
2019-02-10T02:22:11.614Z,8.60
2019-02-10T02:24:42.697Z,8.60
2019-02-10T02:27:13.490Z,8.60
2019-02-10T02:29:44.310Z,8.70
2019-02-10T02:32:15.101Z,8.60
2019-02-10T02:34:45.882Z,8.60
2019-02-10T02:37:16.677Z,8.60
2019-02-10T02:39:47.481Z,8.60
2019-02-10T02:42:18.274Z,8.60
2019-02-10T02:44:49.078Z,8.60
2019-02-10T02:47:19.846Z,8.60
2019-02-10T02:49:50.914Z,8.60
2019-02-10T02:52:21.678Z,8.60
2019-02-10T02:54:52.470Z,8.50
2019-02-10T02:57:23.466Z,8.50
2019-02-10T02:59:54.275Z,8.50
2019-02-10T03:02:25.049Z,8.40
2019-02-10T03:04:55.852Z,8.40
2019-02-10T03:07:26.615Z,8.40
2019-02-10T03:09:57.423Z,8.40
2019-02-10T03:12:28.191Z,8.30
2019-02-10T03:14:59.010Z,8.30
2019-02-10T03:17:30.003Z,8.30
2019-02-10T03:20:00.812Z,8.30
2019-02-10T03:22:31.803Z,8.30
2019-02-10T03:25:02.611Z,8.30
2019-02-10T03:27:33.392Z,8.30
2019-02-10T03:30:11.194Z,8.20
2019-02-10T03:32:42.190Z,8.20
2019-02-10T03:35:12.986Z,8.20
2019-02-10T03:37:44.026Z,8.20
2019-02-10T03:40:14.814Z,8.20
2019-02-10T03:42:45.580Z,8.10
2019-02-10T03:45:16.374Z,8.10
2019-02-10T03:47:47.378Z,8.10
2019-02-10T03:50:18.176Z,8.10
2019-02-10T03:52:49.011Z,8.10
2019-02-10T03:55:20.035Z,8.10
2019-02-10T03:57:51.094Z,8.10
2019-02-10T04:00:21.891Z,8.20
2019-02-10T04:02:52.815Z,8.10
2019-02-10T04:05:23.609Z,8.10
2019-02-10T04:07:54.362Z,8.10
2019-02-10T04:10:25.146Z,8.10
2019-02-10T04:12:55.885Z,8.10
2019-02-10T04:15:26.740Z,8.10
2019-02-10T04:17:57.506Z,8.10
2019-02-10T04:20:28.289Z,8.10
2019-02-10T04:22:59.079Z,8.10
2019-02-10T04:25:30.088Z,8.10
2019-02-10T04:28:00.882Z,8.00
2019-02-10T04:30:31.641Z,8.00
2019-02-10T04:33:02.410Z,8.00
2019-02-10T04:35:33.164Z,8.00
2019-02-10T04:38:03.940Z,8.00
2019-02-10T04:40:34.682Z,8.00
2019-02-10T04:43:05.471Z,8.00
2019-02-10T04:45:36.221Z,8.00
2019-02-10T04:48:07.058Z,8.00
2019-02-10T04:50:37.797Z,8.00
2019-02-10T04:53:08.819Z,8.00
2019-02-10T04:55:39.573Z,8.00
2019-02-10T04:58:10.343Z,8.00
2019-02-10T05:00:41.321Z,8.00
2019-02-10T05:03:12.095Z,8.00
2019-02-10T05:05:42.871Z,8.00
2019-02-10T05:08:13.909Z,8.00
2019-02-10T05:10:44.638Z,8.00
2019-02-10T05:13:15.490Z,8.00
2019-02-10T05:15:46.243Z,8.10
2019-02-10T05:18:17.017Z,8.10
2019-02-10T05:20:47.766Z,8.20
2019-02-10T05:23:18.537Z,8.20
2019-02-10T05:25:49.283Z,8.30
2019-02-10T05:28:20.067Z,8.50
2019-02-10T05:30:51.048Z,8.60
2019-02-10T05:33:21.811Z,8.70
2019-02-10T05:35:52.549Z,8.90
2019-02-10T05:38:23.323Z,8.90
2019-02-10T05:40:54.298Z,9.00
2019-02-10T05:43:25.078Z,9.10
2019-02-10T05:45:55.822Z,9.10
2019-02-10T05:48:26.604Z,9.20
2019-02-10T05:50:57.592Z,9.30
2019-02-10T05:53:28.357Z,9.30
2019-02-10T05:55:59.122Z,9.40
2019-02-10T05:58:29.902Z,9.40
2019-02-10T06:01:36.677Z,9.40
2019-02-10T06:04:07.463Z,9.40
2019-02-10T06:06:38.441Z,9.50
2019-02-10T06:09:09.218Z,9.50
2019-02-10T06:11:39.966Z,9.50
2019-02-10T06:14:10.734Z,9.50
2019-02-10T06:16:41.507Z,9.60
2019-02-10T06:19:12.375Z,9.50
2019-02-10T06:21:43.114Z,9.60
2019-02-10T06:24:13.879Z,9.60
2019-02-10T06:26:44.663Z,9.70
2019-02-10T06:29:15.411Z,9.70
2019-02-10T06:31:46.431Z,9.70
2019-02-10T06:34:17.168Z,9.70
2019-02-10T06:36:48.166Z,9.70
2019-02-10T06:39:19.158Z,9.70
2019-02-10T06:41:49.950Z,9.70
2019-02-10T06:44:20.747Z,9.70
2019-02-10T06:46:51.562Z,9.70
2019-02-10T06:49:22.283Z,9.70
2019-02-10T06:51:53.067Z,9.70
2019-02-10T06:54:23.858Z,9.80
2019-02-10T06:56:55.162Z,9.80
2019-02-10T06:59:33.744Z,9.80
2019-02-10T07:02:22.595Z,9.80
2019-02-10T07:04:53.564Z,9.80
2019-02-10T07:07:24.402Z,9.70
2019-02-10T07:09:55.137Z,9.80
2019-02-10T07:12:50.286Z,9.80
2019-02-10T07:15:57.058Z,9.80
2019-02-10T07:19:03.526Z,9.80
2019-02-10T07:21:34.695Z,9.80
2019-02-10T07:24:34.247Z,9.80
2019-02-10T07:27:11.231Z,9.90
2019-02-10T07:29:56.970Z,9.80
2019-02-10T07:32:30.614Z,9.90
2019-02-10T07:35:33.731Z,9.90
2019-02-10T07:38:22.316Z,9.90
2019-02-10T07:41:11.030Z,10.00
2019-02-10T07:44:17.563Z,9.90
2019-02-10T07:47:09.609Z,10.00
2019-02-10T07:49:46.236Z,10.00
2019-02-10T07:52:23.052Z,10.00
2019-02-10T07:55:17.574Z,10.00
2019-02-10T07:57:57.388Z,10.00
2019-02-10T08:00:47.714Z,10.10
2019-02-10T08:03:36.164Z,10.10
2019-02-10T08:06:18.799Z,10.10
2019-02-10T08:09:13.402Z,10.10
2019-02-10T08:12:11.217Z,10.20
2019-02-10T08:14:50.541Z,10.20
2019-02-10T08:17:27.308Z,10.30
2019-02-10T08:20:06.743Z,10.20
2019-02-10T08:23:01.417Z,10.30
2019-02-10T08:25:37.873Z,10.30
2019-02-10T08:28:20.350Z,10.30
2019-02-10T08:31:10.494Z,10.40
2019-02-10T08:33:47.044Z,10.40
2019-02-10T08:36:26.457Z,10.40
2019-02-10T08:39:34.835Z,10.50
2019-02-10T08:42:23.541Z,10.50
2019-02-10T08:44:57.602Z,10.50
2019-02-10T08:47:39.934Z,10.50
2019-02-10T08:50:41.074Z,10.50
2019-02-10T08:53:14.906Z,10.60
2019-02-10T08:55:46.218Z,10.60
2019-02-10T08:58:16.970Z,10.60
2019-02-10T09:00:47.746Z,10.60
2019-02-10T09:03:19.810Z,10.60
2019-02-10T09:05:50.748Z,10.60
2019-02-10T09:08:21.543Z,10.60
2019-02-10T09:10:52.553Z,10.50
2019-02-10T09:13:23.317Z,10.60
2019-02-10T09:15:54.117Z,10.50
2019-02-10T09:18:24.909Z,10.60
2019-02-10T09:20:55.687Z,10.50
2019-02-10T09:23:26.694Z,10.50
2019-02-10T09:25:57.481Z,10.50
2019-02-10T09:28:28.226Z,10.50
2019-02-10T09:30:59.002Z,10.50
2019-02-10T09:33:29.999Z,10.50
2019-02-10T09:36:00.783Z,10.50
2019-02-10T09:38:31.533Z,10.50
2019-02-10T09:41:02.356Z,10.50
2019-02-10T09:43:33.390Z,10.50
2019-02-10T09:46:04.467Z,10.50
2019-02-10T09:48:35.454Z,10.50
2019-02-10T09:51:06.486Z,10.40
2019-02-10T09:53:37.249Z,10.50
2019-02-10T09:56:08.254Z,10.50
2019-02-10T09:58:39.005Z,10.40
2019-02-10T10:01:10.011Z,10.40
2019-02-10T10:03:40.763Z,10.40
2019-02-10T10:06:11.541Z,10.40
2019-02-10T10:08:42.370Z,10.40
2019-02-10T10:11:13.122Z,10.40
2019-02-10T10:13:43.898Z,10.40
2019-02-10T10:16:14.675Z,10.40
2019-02-10T10:18:45.445Z,10.50
2019-02-10T10:21:16.198Z,10.50
2019-02-10T10:23:47.222Z,10.50
2019-02-10T10:26:17.967Z,10.40
2019-02-10T10:28:48.755Z,10.40
2019-02-10T10:31:19.506Z,10.40
2019-02-10T10:33:50.296Z,10.40
2019-02-10T10:36:21.047Z,10.50
2019-02-10T10:38:51.836Z,10.50
2019-02-10T10:41:22.613Z,10.50
2019-02-10T10:43:53.386Z,10.60
2019-02-10T10:46:24.137Z,10.60
2019-02-10T10:48:54.928Z,10.50
2019-02-10T10:51:25.898Z,10.60
2019-02-10T10:53:56.673Z,10.60
2019-02-10T10:56:27.670Z,10.60
2019-02-10T10:58:58.522Z,10.60
2019-02-10T11:01:29.289Z,10.70
2019-02-10T11:04:00.082Z,10.70
2019-02-10T11:06:30.827Z,10.70
2019-02-10T11:09:01.842Z,10.70
2019-02-10T11:11:33.315Z,10.70
2019-02-10T11:14:04.122Z,10.70
2019-02-10T11:16:34.871Z,10.60
2019-02-10T11:19:05.641Z,10.60
2019-02-10T11:21:36.629Z,10.60
2019-02-10T11:24:07.410Z,10.60
2019-02-10T11:26:38.177Z,10.60
2019-02-10T11:29:40.576Z,10.60
2019-02-10T11:32:21.068Z,10.60
2019-02-10T11:35:06.547Z,10.60
2019-02-10T11:37:44.770Z,10.60
2019-02-10T11:40:34.177Z,10.60
2019-02-10T11:43:07.011Z,10.60
2019-02-10T11:45:38.805Z,10.60
2019-02-10T11:48:09.570Z,10.60
2019-02-10T11:50:40.600Z,10.60
2019-02-10T11:53:13.274Z,10.60
2019-02-10T11:55:44.284Z,10.60
2019-02-10T11:58:15.017Z,10.60
2019-02-10T12:00:46.037Z,10.70
2019-02-10T12:03:16.806Z,10.70
2019-02-10T12:05:47.830Z,10.70
2019-02-10T12:08:18.895Z,10.70
2019-02-10T12:10:49.960Z,10.70
2019-02-10T12:13:20.933Z,10.80
2019-02-10T12:15:51.706Z,10.80
2019-02-10T12:18:22.478Z,10.80
2019-02-10T12:20:53.235Z,10.80
2019-02-10T12:23:24.327Z,10.80
2019-02-10T12:25:55.054Z,10.80
2019-02-10T12:28:25.826Z,10.70
2019-02-10T12:30:56.594Z,10.70
2019-02-10T12:33:27.433Z,10.70
2019-02-10T12:35:58.656Z,10.60
2019-02-10T12:38:29.672Z,10.60
2019-02-10T12:41:00.435Z,10.60
2019-02-10T12:43:31.284Z,10.50
2019-02-10T12:46:02.287Z,10.50
2019-02-10T12:48:33.072Z,10.50
2019-02-10T12:51:03.837Z,10.40
2019-02-10T12:53:34.842Z,10.40
2019-02-10T12:56:05.574Z,10.50
2019-02-10T12:58:36.358Z,10.50
2019-02-10T13:01:07.177Z,10.50
2019-02-10T13:03:37.952Z,10.50
2019-02-10T13:06:08.698Z,10.50
2019-02-10T13:08:39.478Z,10.50
2019-02-10T13:11:10.250Z,10.60
2019-02-10T13:13:41.020Z,10.60
2019-02-10T13:16:11.999Z,10.60
2019-02-10T13:18:42.780Z,10.70
2019-02-10T13:21:13.535Z,10.70
2019-02-10T13:23:44.539Z,10.70
2019-02-10T13:26:15.518Z,10.70
2019-02-10T13:28:46.528Z,10.60
2019-02-10T13:31:17.270Z,10.60
2019-02-10T13:33:48.047Z,10.60
2019-02-10T13:36:19.050Z,10.50
2019-02-10T13:38:49.841Z,10.50
2019-02-10T13:41:20.818Z,10.50
2019-02-10T13:43:51.803Z,10.50
2019-02-10T13:46:22.560Z,10.60
2019-02-10T13:48:53.359Z,10.70
2019-02-10T13:51:24.336Z,10.80
2019-02-10T13:53:55.374Z,10.80
2019-02-10T13:56:26.120Z,10.80
2019-02-10T13:58:56.889Z,10.80
2019-02-10T14:01:27.661Z,10.80
2019-02-10T14:03:58.434Z,10.80
2019-02-10T14:06:29.424Z,10.70
2019-02-10T14:09:00.430Z,10.70
2019-02-10T14:11:31.182Z,10.60
2019-02-10T14:14:02.040Z,10.60
2019-02-10T14:16:32.810Z,10.60
2019-02-10T14:19:03.791Z,10.50
2019-02-10T14:21:34.556Z,10.50
2019-02-10T14:24:05.338Z,10.40
2019-02-10T14:26:36.310Z,10.50
2019-02-10T14:29:07.110Z,10.50
2019-02-10T14:31:37.853Z,10.50
2019-02-10T14:34:08.637Z,10.40
2019-02-10T14:36:39.418Z,10.40
2019-02-10T14:39:10.154Z,10.30
2019-02-10T14:41:40.928Z,10.30
2019-02-10T14:44:11.685Z,10.30
2019-02-10T14:46:42.458Z,10.20
2019-02-10T14:49:13.203Z,10.10
2019-02-10T14:51:44.214Z,10.10
2019-02-10T14:54:15.227Z,10.10
2019-02-10T14:56:45.997Z,10.00
2019-02-10T14:59:16.766Z,9.90
2019-02-10T15:01:47.506Z,9.80
2019-02-10T15:04:18.253Z,9.70
2019-02-10T15:06:49.038Z,9.60
2019-02-10T15:09:19.777Z,9.50
2019-02-10T15:11:50.786Z,9.50
2019-02-10T15:14:21.538Z,9.40
2019-02-10T15:16:52.322Z,9.30
2019-02-10T15:19:23.061Z,9.30
2019-02-10T15:21:53.837Z,9.20
2019-02-10T15:24:24.814Z,9.20
2019-02-10T15:26:55.826Z,9.20
2019-02-10T15:29:26.570Z,9.20
2019-02-10T15:31:57.331Z,9.10
2019-02-10T15:34:28.142Z,9.10
2019-02-10T15:36:58.905Z,9.10
2019-02-10T15:39:29.889Z,9.10
2019-02-10T15:42:09.092Z,9.10
2019-02-10T15:44:33.338Z,9.10
2019-02-10T15:47:04.350Z,9.00
2019-02-10T15:49:35.354Z,9.00
2019-02-10T15:52:06.334Z,9.00
2019-02-10T15:54:37.109Z,8.90
2019-02-10T15:57:07.851Z,8.90
2019-02-10T15:59:38.626Z,8.90
2019-02-10T16:02:09.437Z,8.80
2019-02-10T16:04:40.199Z,8.70
2019-02-10T16:07:10.934Z,8.70
2019-02-10T16:09:41.751Z,8.70
2019-02-10T16:12:12.723Z,8.60
2019-02-10T16:14:43.486Z,8.60
2019-02-10T16:17:14.259Z,8.60
2019-02-10T16:19:45.022Z,8.60
2019-02-10T16:22:16.000Z,8.60
2019-02-10T16:24:47.001Z,8.50
2019-02-10T16:27:17.765Z,8.50
2019-02-10T16:29:48.780Z,8.40
2019-02-10T16:32:19.522Z,8.40
2019-02-10T16:34:50.285Z,8.30
2019-02-10T16:37:21.027Z,8.30
2019-02-10T16:39:52.038Z,8.20
2019-02-10T16:42:23.068Z,8.20
2019-02-10T16:44:53.818Z,8.10
2019-02-10T16:47:24.598Z,8.10
2019-02-10T16:49:55.333Z,8.00
2019-02-10T16:52:26.364Z,8.00
2019-02-10T16:54:57.302Z,8.00
2019-02-10T16:57:28.306Z,8.00
2019-02-10T16:59:59.044Z,7.90
2019-02-10T17:02:30.038Z,7.90
2019-02-10T17:05:00.776Z,7.90
2019-02-10T17:07:31.000Z,7.80
2019-02-10T17:10:01.742Z,7.80
2019-02-10T17:12:32.509Z,7.80
2019-02-10T17:15:03.314Z,7.80
2019-02-10T17:17:34.119Z,7.70
2019-02-10T17:20:07.499Z,7.70
2019-02-10T17:22:38.279Z,7.70
2019-02-10T17:25:21.088Z,7.70
2019-02-10T17:27:51.851Z,7.80
2019-02-10T17:30:22.595Z,7.80
2019-02-10T17:32:53.599Z,7.80
2019-02-10T17:35:24.327Z,7.80
2019-02-10T17:37:55.101Z,7.80
2019-02-10T17:40:32.208Z,7.70
2019-02-10T17:43:03.263Z,7.70
2019-02-10T17:45:34.127Z,7.70
2019-02-10T17:48:05.171Z,7.70
2019-02-10T17:50:35.946Z,7.70
2019-02-10T17:53:06.930Z,7.70
2019-02-10T17:55:37.698Z,7.70
2019-02-10T17:58:08.458Z,7.80
2019-02-10T18:00:40.865Z,7.80
2019-02-10T18:03:11.626Z,7.80
2019-02-10T18:05:42.389Z,7.80
2019-02-10T18:08:12.602Z,7.70
2019-02-10T18:10:43.342Z,7.70
2019-02-10T18:13:13.565Z,7.70
2019-02-10T18:15:48.619Z,7.70
2019-02-10T18:18:33.067Z,7.70
2019-02-10T18:21:10.682Z,7.70
2019-02-10T18:23:43.317Z,7.70
2019-02-10T18:26:21.790Z,7.70
2019-02-10T18:29:09.187Z,7.70
2019-02-10T18:31:44.076Z,7.70
2019-02-10T18:34:15.926Z,7.70
2019-02-10T18:36:48.329Z,7.70
2019-02-10T18:39:25.917Z,7.70
2019-02-10T18:42:04.026Z,7.60
2019-02-10T18:44:42.341Z,7.60
2019-02-10T18:47:17.219Z,7.60
2019-02-10T18:49:49.655Z,7.50
2019-02-10T18:52:33.245Z,7.50
2019-02-10T18:55:09.396Z,7.40
2019-02-10T18:57:56.146Z,7.40
2019-02-10T19:00:33.677Z,7.40
2019-02-10T19:03:05.542Z,7.30
2019-02-10T19:05:37.362Z,7.30
2019-02-10T19:08:25.011Z,7.30
2019-02-10T19:10:59.545Z,7.30
2019-02-10T19:13:31.638Z,7.20
2019-02-10T19:16:19.473Z,7.20
2019-02-10T19:18:57.430Z,7.20
2019-02-10T19:21:29.487Z,7.20
2019-02-10T19:24:01.344Z,7.20
2019-02-10T19:26:49.318Z,7.10
2019-02-10T19:29:32.865Z,7.20
2019-02-10T19:32:07.873Z,7.10
2019-02-10T19:34:55.674Z,7.10
2019-02-10T19:37:30.441Z,7.10
2019-02-10T19:40:04.978Z,7.10
2019-02-10T19:42:42.763Z,7.10
2019-02-10T19:45:17.034Z,7.10
2019-02-10T19:48:03.724Z,7.10
2019-02-10T19:50:41.394Z,7.00
2019-02-10T19:53:22.088Z,7.00
2019-02-10T19:55:56.896Z,7.00
2019-02-10T19:58:40.438Z,7.00
2019-02-10T20:01:28.553Z,7.00
2019-02-10T20:04:06.330Z,7.00
2019-02-10T20:06:38.170Z,7.00
2019-02-10T20:09:15.685Z,6.90
2019-02-10T20:12:05.579Z,6.90
2019-02-10T20:14:46.118Z,6.90
2019-02-10T20:17:17.992Z,6.90
2019-02-10T20:20:04.585Z,6.90
2019-02-10T20:22:54.303Z,6.80
2019-02-10T20:25:41.858Z,6.80
2019-02-10T20:28:16.238Z,6.80
2019-02-10T20:30:48.302Z,6.70
2019-02-10T20:33:26.008Z,6.70
2019-02-10T20:36:06.720Z,6.60
2019-02-10T20:38:50.259Z,6.50
2019-02-10T20:41:31.187Z,6.50
2019-02-10T20:44:03.038Z,6.50
2019-02-10T20:46:40.894Z,6.40
2019-02-10T20:49:15.732Z,6.40
2019-02-10T20:51:56.435Z,6.40
2019-02-10T20:54:31.201Z,6.30
2019-02-10T20:57:03.055Z,6.30
2019-02-10T20:59:34.884Z,6.30
2019-02-10T21:02:09.433Z,6.20
2019-02-10T21:04:41.271Z,6.20
2019-02-10T21:07:13.366Z,6.20
2019-02-10T21:10:00.139Z,6.10
2019-02-10T21:12:32.107Z,6.10
2019-02-10T21:15:04.197Z,6.00
2019-02-10T21:17:42.285Z,6.00
2019-02-10T21:20:17.170Z,6.00
2019-02-10T21:22:58.115Z,5.90
2019-02-10T21:25:52.607Z,5.90
2019-02-10T21:28:19.572Z,5.90
2019-02-10T21:31:07.450Z,5.80
2019-02-10T21:33:39.282Z,5.80
2019-02-10T21:36:19.809Z,5.70
2019-02-10T21:38:51.657Z,5.70
2019-02-10T21:41:23.750Z,5.70
2019-02-10T21:43:55.570Z,5.60
2019-02-10T21:46:36.270Z,5.60
2019-02-10T21:49:06.735Z,5.60
2019-02-10T21:51:37.209Z,5.60
2019-02-10T21:54:09.197Z,5.60
2019-02-10T21:56:39.710Z,5.50
2019-02-10T21:59:09.903Z,5.50
2019-02-10T22:01:40.382Z,5.50
2019-02-10T22:04:10.569Z,5.50
2019-02-10T22:06:41.037Z,5.40
2019-02-10T22:09:11.458Z,5.40
2019-02-10T22:11:41.942Z,5.40
2019-02-10T22:14:12.134Z,5.40
2019-02-10T22:16:42.586Z,5.40
2019-02-10T22:19:23.801Z,5.30
2019-02-10T22:22:04.215Z,5.40
2019-02-10T22:27:46.399Z,5.30
2019-02-10T22:30:29.498Z,5.30
2019-02-10T22:33:05.264Z,5.30
2019-02-10T22:35:40.551Z,5.20
2019-02-10T22:38:15.766Z,5.20
2019-02-10T22:40:48.691Z,5.20
2019-02-10T22:43:22.006Z,5.20
2019-02-10T22:45:56.011Z,5.20
2019-02-10T22:48:27.710Z,5.20
2019-02-10T22:51:00.861Z,5.10
2019-02-10T22:53:37.294Z,5.10
2019-02-10T22:56:12.111Z,5.10
2019-02-10T22:58:43.803Z,5.10
2019-02-10T23:01:15.731Z,5.10
2019-02-10T23:03:47.780Z,5.10
2019-02-10T23:06:21.349Z,5.10
2019-02-10T23:08:52.999Z,5.00
2019-02-10T23:11:24.537Z,5.00
2019-02-10T23:13:56.170Z,5.00
2019-02-10T23:16:27.868Z,5.00
2019-02-10T23:18:59.664Z,5.00
2019-02-10T23:21:31.183Z,5.00
2019-02-10T23:24:03.393Z,5.00
2019-02-10T23:26:35.923Z,4.90
2019-02-10T23:29:07.691Z,4.90
2019-02-10T23:31:39.704Z,4.90
2019-02-10T23:34:11.339Z,4.90
2019-02-10T23:36:42.899Z,4.90
2019-02-10T23:39:15.341Z,4.90
2019-02-10T23:41:46.898Z,4.90
2019-02-10T23:44:19.546Z,4.90
2019-02-10T23:46:51.039Z,4.90
2019-02-10T23:49:22.622Z,4.90
2019-02-10T23:51:54.494Z,4.90
2019-02-10T23:54:26.157Z,4.90
2019-02-10T23:56:57.664Z,4.80
2019-02-10T23:59:29.261Z,4.80
